Time;durP1;ratioP1;P1;durP2;ratioP2;P2;SDS_P1;SDS_P2;PMS_P1;PMS_P2;Temp;Humidity;BMP_temperature;BMP_pressure;BME280_temperature;BME280_humidity;BME280_pressure;Samples;Min_cycle;Max_cycle;Signal;HPM_P1;HPM_P2
2024/01/15 00:00:34;;;;;;;11.50;1.42;;;;;;;-146.27;73.57;43789.41;5068583;28;20443;-72
2024/01/15 00:02:59;;;;;;;8.63;0.95;;;;;;;-146.27;72.86;43815.28;5061013;28;20107;-73
2024/01/15 00:05:24;;;;;;;13.52;1.50;;;;;;;-146.27;73.85;43815.28;5068014;28;20032;-72
2024/01/15 00:07:50;;;;;;;12.73;1.48;;;;;;;-146.27;74.25;43809.31;5065970;28;20025;-71
2024/01/15 00:10:15;;;;;;;10.57;0.75;;;;;;;-146.27;73.50;43865.00;5067264;28;20492;-71
2024/01/15 00:12:40;;;;;;;5.57;1.13;;;;;;;-146.27;73.77;43870.97;5066667;28;20443;-71
2024/01/15 00:15:06;;;;;;;4.53;0.77;;;;;;;-146.27;74.54;43841.13;5065070;28;20461;-71
2024/01/15 00:17:31;;;;;;;5.10;0.82;;;;;;;-146.27;74.67;43845.13;5065743;28;20480;-72
2024/01/15 00:19:57;;;;;;;8.93;1.00;;;;;;;-146.27;74.51;43865.00;5063358;28;20319;-71
2024/01/15 00:22:25;;;;;;;7.53;1.20;;;;;;;-146.27;74.68;43849.09;5062596;28;20468;-71
2024/01/15 00:24:50;;;;;;;15.68;1.20;;;;;;;-146.27;74.01;43857.06;5068549;28;20397;-72
2024/01/15 00:27:15;;;;;;;8.05;1.15;;;;;;;-146.27;74.43;43817.25;5069764;28;20028;-72
2024/01/15 00:29:41;;;;;;;9.88;1.35;;;;;;;-146.27;76.61;43713.81;5067450;28;20036;-72
2024/01/15 00:32:06;;;;;;;17.13;2.60;;;;;;;-146.27;77.49;43662.09;5066432;28;20024;-71
2024/01/15 00:34:31;;;;;;;10.40;1.40;;;;;;;-146.27;78.30;43630.25;5060962;28;20020;-72
2024/01/15 00:36:57;;;;;;;10.70;1.23;;;;;;;-146.27;78.66;43596.44;5069563;28;20116;-71
2024/01/15 00:39:22;;;;;;;15.40;1.50;;;;;;;-146.27;79.69;43514.88;5068874;28;20046;-71
2024/01/15 00:41:47;;;;;;;9.77;1.42;;;;;;;-146.27;80.54;43475.09;5067576;28;20066;-73
2024/01/15 00:44:13;;;;;;;11.00;1.05;;;;;;;-146.27;80.34;43479.06;5062463;28;20033;-72
2024/01/15 00:46:48;;;;;;;13.02;1.65;;;;;;;-146.27;80.64;43403.50;5066866;28;20083;-72
2024/01/15 00:49:14;;;;;;;10.45;1.15;;;;;;;-146.27;81.03;43373.66;5058947;28;20072;-72
2024/01/15 00:51:39;;;;;;;12.00;1.60;;;;;;;-146.27;80.97;43373.66;5063456;28;20056;-71
2024/01/15 00:54:05;;;;;;;22.10;1.50;;;;;;;-146.27;79.94;43465.16;5066885;28;20034;-72
2024/01/15 00:56:31;;;;;;;9.70;0.68;;;;;;;-146.27;78.61;43495.00;5066622;28;20205;-71
2024/01/15 00:58:56;;;;;;;5.13;1.20;;;;;;;-146.27;77.71;43584.50;5059170;28;20025;-72
2024/01/15 01:01:21;;;;;;;16.30;0.88;;;;;;;-146.27;77.25;43590.47;5059079;28;20105;-72
2024/01/15 01:03:47;;;;;;;12.90;1.52;;;;;;;-146.27;76.52;43630.25;5060380;28;20028;-72
2024/01/15 01:06:12;;;;;;;14.10;1.35;;;;;;;-146.27;76.63;43644.19;5063005;28;20313;-71
2024/01/15 01:08:39;;;;;;;5.25;0.88;;;;;;;-146.27;77.13;43598.44;5064653;28;20028;-72
2024/01/15 01:11:06;;;;;;;8.80;1.48;;;;;;;-146.27;76.81;43638.22;5065784;28;20120;-71
2024/01/15 01:13:32;;;;;;;9.25;0.93;;;;;;;-146.27;76.72;43630.25;5063260;28;20024;-73
2024/01/15 01:15:57;;;;;;;6.75;0.90;;;;;;;-146.27;76.90;43614.34;5066003;28;20025;-72
2024/01/15 01:18:23;;;;;;;4.93;0.90;;;;;;;-146.27;77.56;43600.44;5065621;28;20028;-72
2024/01/15 01:20:48;;;;;;;8.82;0.90;;;;;;;-146.27;78.41;43544.72;5065097;28;20028;-74
2024/01/15 01:23:14;;;;;;;4.75;1.33;;;;;;;-146.27;78.59;43532.78;5065325;28;20079;-72
2024/01/15 01:25:39;;;;;;;11.48;2.05;;;;;;;-146.27;79.57;43475.09;5064621;28;20423;-72
2024/01/15 01:28:04;;;;;;;9.70;1.17;;;;;;;-146.27;80.04;43435.31;5062987;28;20201;-71
2024/01/15 01:30:30;;;;;;;1.92;0.43;;;;;;;-146.27;80.37;43459.19;5063570;28;20024;-72
2024/01/15 01:32:55;;;;;;;6.15;0.90;;;;;;;-146.27;80.62;43425.38;5062907;28;20020;-72
2024/01/15 01:35:22;;;;;;;9.48;0.88;;;;;;;-146.27;80.51;43419.41;5065852;28;20044;-71
2024/01/15 01:37:47;;;;;;;9.25;0.82;;;;;;;-146.27;80.98;43431.34;5060576;28;20115;-72
2024/01/15 01:40:12;;;;;;;10.23;1.55;;;;;;;-146.27;81.43;43387.56;5059265;28;20600;-71
2024/01/15 01:42:38;;;;;;;3.10;1.67;;;;;;;-146.27;81.37;43403.50;5063252;28;20024;-71
2024/01/15 01:45:04;;;;;;;2.30;0.63;;;;;;;-146.27;80.89;43435.31;5066878;28;20024;-71
2024/01/15 01:47:29;;;;;;;5.25;0.60;;;;;;;-146.27;80.83;43431.34;5066371;28;20347;-72
2024/01/15 01:49:55;;;;;;;9.75;0.95;;;;;;;-146.27;80.90;43447.25;5058297;28;20021;-71
2024/01/15 01:52:20;;;;;;;5.85;0.80;;;;;;;-146.27;80.40;43423.38;5064200;28;20056;-72
2024/01/15 01:54:46;;;;;;;7.65;1.00;;;;;;;-146.27;80.65;43463.16;5065698;28;20016;-72
2024/01/15 01:57:12;;;;;;;7.07;0.68;;;;;;;-146.27;80.97;43407.47;5071064;28;20054;-72
2024/01/15 01:59:38;;;;;;;6.97;0.93;;;;;;;-146.27;80.62;43399.50;5066656;28;20032;-72
2024/01/15 02:02:04;;;;;;;3.33;0.75;;;;;;;-146.27;81.43;43417.41;5064787;28;20036;-71
2024/01/15 02:04:31;;;;;;;3.67;0.50;;;;;;;-146.27;80.48;43435.31;5063785;28;20032;-72
2024/01/15 02:06:56;;;;;;;9.13;1.13;;;;;;;-146.27;80.26;43449.25;5069459;28;20347;-71
2024/01/15 02:09:21;;;;;;;4.57;1.13;;;;;;;-146.27;79.67;43504.94;5069598;28;20033;-71
2024/01/15 02:11:47;;;;;;;5.05;0.55;;;;;;;-146.27;79.20;43548.69;5069947;28;20050;-71
2024/01/15 02:14:13;;;;;;;2.85;0.30;;;;;;;-146.27;78.80;43598.44;5069193;28;20035;-71
2024/01/15 02:16:39;;;;;;;1.80;0.52;;;;;;;-146.27;79.18;43570.59;5071046;28;20032;-71
2024/01/15 02:19:04;;;;;;;10.40;0.75;;;;;;;-146.27;79.69;43566.59;5071753;28;20087;-71
2024/01/15 02:21:31;;;;;;;2.72;0.40;;;;;;;-146.27;79.39;43542.72;5067496;28;20040;-72
2024/01/15 02:23:56;;;;;;;5.43;0.68;;;;;;;-146.27;79.12;43548.69;5070819;28;20040;-72
2024/01/15 02:26:22;;;;;;;1.15;0.52;;;;;;;-146.27;79.06;43554.66;5071685;28;20696;-72
2024/01/15 02:28:49;;;;;;;10.73;1.17;;;;;;;-146.27;79.15;43602.41;5063005;28;20032;-72
2024/01/15 02:31:15;;;;;;;13.10;0.90;;;;;;;-146.27;78.82;43574.56;5060389;28;20021;-72
2024/01/15 02:33:42;;;;;;;6.65;0.95;;;;;;;-146.27;78.82;43558.66;5070188;28;20059;-71
2024/01/15 02:36:07;;;;;;;1.65;0.40;;;;;;;-146.27;78.24;43610.38;5070118;28;20538;-71
2024/01/15 02:38:33;;;;;;;8.23;0.85;;;;;;;-146.27;78.72;43630.25;5070087;28;20032;-71
2024/01/15 02:40:58;;;;;;;2.58;0.73;;;;;;;-146.27;79.20;43582.53;5067882;28;20059;-72
2024/01/15 02:43:24;;;;;;;5.07;0.43;;;;;;;-146.27;79.54;43538.75;5070870;28;20024;-72
2024/01/15 02:45:49;;;;;;;4.85;0.93;;;;;;;-146.27;79.99;43522.84;5068911;28;20037;-72
2024/01/15 02:48:14;;;;;;;6.53;0.85;;;;;;;-146.27;80.01;43512.91;5070456;28;20020;-72
2024/01/15 02:50:40;;;;;;;3.42;0.80;;;;;;;-146.27;80.39;43508.91;5066920;28;20029;-72
2024/01/15 02:53:05;;;;;;;6.10;0.73;;;;;;;-146.27;80.51;43491.00;5062849;28;20508;-71
2024/01/15 02:55:30;;;;;;;3.40;0.63;;;;;;;-146.27;80.97;43475.09;5062717;28;20112;-72
2024/01/15 02:57:56;;;;;;;4.63;0.73;;;;;;;-146.27;81.92;43439.28;5062345;28;20080;-72
2024/01/15 03:00:21;;;;;;;4.47;1.35;;;;;;;-146.27;81.19;43419.41;5065322;28;20403;-73
2024/01/15 03:02:50;;;;;;;3.53;0.70;;;;;;;-146.27;81.73;43443.28;5062606;28;21369;-72
2024/01/15 03:05:16;;;;;;;2.13;0.60;;;;;;;-146.27;82.13;43425.38;5061840;28;20089;-72
2024/01/15 03:07:42;;;;;;;4.57;1.52;;;;;;;-146.27;82.58;43361.72;5062755;28;20021;-72
2024/01/15 03:10:08;;;;;;;3.47;0.68;;;;;;;-146.27;82.38;43313.97;5061598;28;20102;-72
2024/01/15 03:12:33;;;;;;;4.88;1.08;;;;;;;-146.27;82.68;43268.22;5068132;28;20077;-72
2024/01/15 03:14:59;;;;;;;7.72;1.20;;;;;;;-146.27;84.58;43152.84;5070644;28;20024;-72
2024/01/15 03:17:24;;;;;;;7.32;1.00;;;;;;;-146.27;84.56;43105.13;5068984;28;20229;-72
2024/01/15 03:19:49;;;;;;;17.17;2.10;;;;;;;-146.27;84.81;43065.34;5065303;28;20024;-72
2024/01/15 03:22:15;;;;;;;4.78;0.50;;;;;;;-146.27;84.70;43031.53;5059546;28;20454;-72
2024/01/15 03:24:41;;;;;;;13.07;1.15;;;;;;;-146.27;84.25;43013.63;5060924;28;21253;-72
2024/01/15 03:27:06;;;;;;;10.98;1.42;;;;;;;-146.27;84.91;43055.38;5058696;28;20031;-72
2024/01/15 03:29:31;;;;;;;6.18;1.20;;;;;;;-146.27;85.99;42955.94;5060519;28;20109;-71
2024/01/15 03:31:57;;;;;;;5.78;0.68;;;;;;;-146.27;84.34;42977.81;5062777;28;20456;-72
2024/01/15 03:34:22;;;;;;;1.42;0.40;;;;;;;-146.27;82.93;43061.34;5061635;28;20017;-72
2024/01/15 03:36:47;;;;;;;1.35;0.30;;;;;;;-146.27;83.33;43121.03;5068063;28;20538;-71
2024/01/15 03:39:13;;;;;;;0.95;0.30;;;;;;;-146.27;82.98;43152.84;5064868;28;20408;-70
2024/01/15 03:41:38;;;;;;;5.15;0.55;;;;;;;-146.27;84.31;43111.09;5060358;28;20297;-72
2024/01/15 03:44:04;;;;;;;0.93;0.38;;;;;;;-146.27;84.56;43109.09;5060594;28;20396;-72
2024/01/15 03:46:29;;;;;;;3.53;0.30;;;;;;;-146.27;84.83;43095.16;5061050;28;20056;-72
2024/01/15 03:48:54;;;;;;;2.65;0.40;;;;;;;-146.27;85.79;43053.41;5059395;28;20032;-71
2024/01/15 03:51:20;;;;;;;3.85;1.05;;;;;;;-146.27;86.78;43013.63;5068542;28;20028;-72
2024/01/15 03:53:46;;;;;;;3.15;0.50;;;;;;;-146.27;86.97;42938.03;5063190;28;20078;-71
2024/01/15 03:56:11;;;;;;;3.20;0.50;;;;;;;-146.27;86.06;42924.13;5067570;28;20029;-71
2024/01/15 03:58:37;;;;;;;4.45;0.30;;;;;;;-146.27;86.18;42955.94;5060733;28;20067;-71
2024/01/15 04:01:03;;;;;;;3.55;0.43;;;;;;;-146.27;86.52;42934.06;5061644;28;20400;-71
2024/01/15 04:03:28;;;;;;;4.70;0.60;;;;;;;-146.27;85.83;42900.25;5062967;28;20036;-73
2024/01/15 04:05:53;;;;;;;3.45;0.70;;;;;;;-146.27;86.02;42942.00;5060599;28;20029;-72
2024/01/15 04:08:19;;;;;;;3.97;0.68;;;;;;;-146.27;86.11;42926.09;5062692;28;20028;-72
2024/01/15 04:10:44;;;;;;;5.72;1.35;;;;;;;-146.27;86.05;42914.16;5063390;28;20087;-72
2024/01/15 04:13:10;;;;;;;0.57;0.20;;;;;;;-146.27;85.57;42902.22;5061676;28;20092;-72
2024/01/15 04:15:36;;;;;;;2.35;0.32;;;;;;;-146.27;84.85;42949.97;5061860;28;20063;-72
2024/01/15 04:18:02;;;;;;;3.78;0.40;;;;;;;-146.27;84.85;43001.69;5063125;28;20020;-72
2024/01/15 04:20:28;;;;;;;5.63;0.60;;;;;;;-146.27;84.64;43021.56;5059820;28;20043;-72
2024/01/15 04:22:53;;;;;;;3.28;0.30;;;;;;;-146.27;85.03;43031.53;5066266;28;20417;-72
2024/01/15 04:25:18;;;;;;;2.00;0.45;;;;;;;-146.27;85.12;42916.16;5067213;28;20035;-72
2024/01/15 04:27:44;;;;;;;1.35;0.50;;;;;;;-146.27;86.45;42938.03;5063143;28;20037;-72
2024/01/15 04:30:10;;;;;;;1.27;0.40;;;;;;;-146.27;86.91;42902.22;5063565;28;20028;-71
2024/01/15 04:32:35;;;;;;;6.40;1.05;;;;;;;-146.27;87.59;42814.72;5065910;28;20025;-71
2024/01/15 04:35:01;;;;;;;4.45;0.52;;;;;;;-146.27;87.89;42848.53;5066745;28;20028;-71
2024/01/15 04:37:26;;;;;;;4.35;0.80;;;;;;;-146.27;88.69;42790.84;5061788;28;20020;-72
2024/01/15 04:39:54;;;;;;;10.57;1.58;;;;;;;-146.27;89.24;42753.06;5062405;28;20028;-72
2024/01/15 04:42:20;;;;;;;12.40;1.40;;;;;;;-146.27;89.77;42743.13;5062505;28;20468;-71
2024/01/15 04:44:45;;;;;;;5.00;0.40;;;;;;;-146.27;89.97;42707.31;5064906;28;20035;-72
2024/01/15 04:47:11;;;;;;;1.63;0.47;;;;;;;-146.27;89.94;42679.47;5068605;28;20431;-72
2024/01/15 04:49:36;;;;;;;4.47;0.50;;;;;;;-146.27;89.47;42717.25;5069919;28;20056;-71
2024/01/15 04:52:01;;;;;;;5.22;0.43;;;;;;;-146.27;89.97;42691.41;5062011;28;20127;-71
2024/01/15 04:54:27;;;;;;;6.57;0.80;;;;;;;-146.27;89.32;42695.38;5062198;28;20024;-72
2024/01/15 04:56:52;;;;;;;4.30;0.38;;;;;;;-146.27;89.31;42695.38;5059539;28;20025;-72
2024/01/15 04:59:17;;;;;;;6.97;0.80;;;;;;;-146.27;89.09;42693.41;5062768;28;20059;-72
2024/01/15 05:01:43;;;;;;;3.63;0.63;;;;;;;-146.27;88.97;42691.41;5065428;28;20031;-72
2024/01/15 05:04:08;;;;;;;1.52;0.32;;;;;;;-146.27;89.16;42679.47;5068023;28;20120;-71
2024/01/15 05:06:33;;;;;;;2.70;0.70;;;;;;;-146.27;89.59;42671.53;5065185;28;20043;-71
2024/01/15 05:08:59;;;;;;;8.75;0.55;;;;;;;-146.27;89.98;42667.53;5063040;28;20028;-72
2024/01/15 05:11:24;;;;;;;1.00;0.43;;;;;;;-146.27;89.23;42687.44;5067060;28;20021;-72
2024/01/15 05:13:50;;;;;;;4.47;0.75;;;;;;;-146.27;89.83;42653.63;5064271;28;20066;-71
2024/01/15 05:16:15;;;;;;;7.05;0.90;;;;;;;-146.27;89.56;42667.53;5067798;28;20115;-72
2024/01/15 05:18:40;;;;;;;7.45;0.70;;;;;;;-146.27;89.10;42677.50;5065941;28;20209;-72
2024/01/15 05:21:06;;;;;;;5.05;0.50;;;;;;;-146.27;89.41;42659.59;5066829;28;20032;-71
2024/01/15 05:23:31;;;;;;;6.03;0.70;;;;;;;-146.27;88.97;42703.34;5062760;28;20445;-72
2024/01/15 05:25:57;;;;;;;5.47;1.13;;;;;;;-146.27;89.25;42655.63;5058533;28;20055;-71
2024/01/15 05:28:22;;;;;;;3.22;0.73;;;;;;;-146.27;89.00;42681.47;5068003;28;20024;-71
2024/01/15 05:30:48;;;;;;;10.07;0.50;;;;;;;-146.27;89.07;42675.50;5062296;28;20504;-71
2024/01/15 05:33:13;;;;;;;1.98;0.50;;;;;;;-146.27;88.86;42681.47;5066560;28;20473;-71
2024/01/15 05:35:39;;;;;;;3.08;0.60;;;;;;;-146.27;89.86;42747.09;5064660;28;20055;-72
2024/01/15 05:38:04;;;;;;;2.25;0.50;;;;;;;-146.27;89.78;42673.50;5063996;28;20059;-71
2024/01/15 05:40:29;;;;;;;1.95;0.35;;;;;;;-146.27;89.71;42685.44;5061275;28;20016;-71
2024/01/15 05:42:55;;;;;;;4.25;0.65;;;;;;;-146.27;90.43;42655.63;5061345;28;20033;-71
2024/01/15 05:45:20;;;;;;;5.57;0.60;;;;;;;-146.27;90.39;42629.75;5055918;28;20111;-71
2024/01/15 05:47:45;;;;;;;9.57;1.33;;;;;;;-146.27;90.39;42639.69;5065089;28;20052;-72
2024/01/15 05:50:11;;;;;;;4.05;0.38;;;;;;;-146.27;90.83;42635.72;5063083;28;20055;-71
2024/01/15 05:52:36;;;;;;;4.15;0.45;;;;;;;-146.27;91.02;42591.97;5064633;28;20024;-71
2024/01/15 05:55:01;;;;;;;11.68;1.13;;;;;;;-146.27;91.96;42588.00;5067302;28;20021;-72
2024/01/15 05:57:27;;;;;;;10.52;0.90;;;;;;;-146.27;91.31;42536.28;5066233;28;20025;-71
2024/01/15 05:59:53;;;;;;;4.28;0.82;;;;;;;-146.27;91.69;42550.22;5064949;28;20024;-72
2024/01/15 06:02:19;;;;;;;11.55;1.05;;;;;;;-146.27;91.85;42520.38;5063276;28;20017;-72
2024/01/15 06:04:44;;;;;;;6.22;0.68;;;;;;;-146.27;91.66;42508.44;5067031;28;20024;-73
2024/01/15 06:07:09;;;;;;;14.25;1.05;;;;;;;-146.27;91.85;42492.53;5066313;28;20056;-72
2024/01/15 06:09:35;;;;;;;4.07;1.13;;;;;;;-146.27;92.36;42506.44;5062265;28;20471;-71
2024/01/15 06:12:00;;;;;;;10.80;1.15;;;;;;;-146.27;92.46;42468.66;5059620;28;20468;-72
2024/01/15 06:14:25;;;;;;;9.05;1.25;;;;;;;-146.27;90.99;42440.81;5065385;28;20031;-72
2024/01/15 06:16:52;;;;;;;10.52;1.20;;;;;;;-146.27;90.83;42472.66;5062561;28;20083;-71
2024/01/15 06:19:17;;;;;;;10.95;1.05;;;;;;;-146.27;90.45;42484.56;5067891;28;20032;-71
2024/01/15 06:21:43;;;;;;;5.25;0.80;;;;;;;-146.27;90.37;42508.44;5066738;28;20029;-71
2024/01/15 06:24:09;;;;;;;9.27;0.73;;;;;;;-146.27;91.39;42552.19;5067880;28;20136;-71
2024/01/15 06:26:35;;;;;;;12.50;0.75;;;;;;;-146.27;90.96;42560.16;5060427;28;20477;-72
2024/01/15 06:29:00;;;;;;;3.42;0.55;;;;;;;-146.27;90.90;42550.22;5062453;28;20213;-72
2024/01/15 06:31:26;;;;;;;4.25;0.50;;;;;;;-146.27;90.13;42584.00;5070380;28;20031;-71
2024/01/15 06:33:51;;;;;;;7.20;0.80;;;;;;;-146.27;89.03;42607.88;5062061;28;20021;-72
2024/01/15 06:36:16;;;;;;;2.75;0.50;;;;;;;-146.27;88.56;42651.63;5066048;28;20025;-71
2024/01/15 06:38:44;;;;;;;2.28;0.38;;;;;;;-146.27;89.38;42641.69;5066345;28;20075;-73
2024/01/15 06:41:09;;;;;;;4.38;0.40;;;;;;;-146.27;89.83;42659.59;5064925;28;20121;-71
2024/01/15 06:43:35;;;;;;;1.70;0.65;;;;;;;-146.27;90.18;42629.75;5066831;28;20482;-72
2024/01/15 06:46:00;;;;;;;7.00;0.70;;;;;;;-146.27;89.97;42619.81;5065225;28;20051;-71
2024/01/15 06:48:25;;;;;;;5.38;0.45;;;;;;;-146.27;90.29;42619.81;5068048;28;20109;-71
2024/01/15 06:50:51;;;;;;;1.08;0.50;;;;;;;-146.27;90.34;42647.66;5067415;28;20059;-72
2024/01/15 06:53:16;;;;;;;2.00;0.70;;;;;;;-146.27;90.19;42609.88;5066119;28;20498;-71
2024/01/15 06:55:42;;;;;;;4.90;1.10;;;;;;;-146.27;90.10;42629.75;5065071;28;20032;-72
2024/01/15 06:58:07;;;;;;;2.90;0.75;;;;;;;-146.27;89.57;42623.78;5065699;28;20025;-71
2024/01/15 07:00:33;;;;;;;7.38;0.70;;;;;;;-146.27;89.88;42671.53;5059551;28;20209;-71
2024/01/15 07:02:58;;;;;;;5.82;0.68;;;;;;;-146.27;90.10;42655.63;5061648;28;20052;-70
2024/01/15 07:05:24;;;;;;;4.20;0.88;;;;;;;-146.27;89.40;42665.56;5061057;28;20029;-71
2024/01/15 07:07:49;;;;;;;7.85;0.95;;;;;;;-146.27;89.51;42667.53;5060620;28;20040;-70
2024/01/15 07:10:15;;;;;;;5.10;0.88;;;;;;;-146.27;89.44;42683.47;5062588;28;20044;-70
2024/01/15 07:12:44;;;;;;;5.97;1.00;;;;;;;-146.27;89.75;42675.50;5086775;28;20024;-70
2024/01/15 07:15:10;;;;;;;7.45;1.05;;;;;;;-146.27;90.21;42635.72;5069426;28;20029;-72
2024/01/15 07:17:35;;;;;;;6.55;0.90;;;;;;;-146.27;90.09;42645.66;5076996;28;20055;-71
2024/01/15 07:20:01;;;;;;;5.95;0.75;;;;;;;-146.27;89.94;42677.50;5069397;28;20099;-70
2024/01/15 07:22:27;;;;;;;6.32;0.95;;;;;;;-146.27;89.94;42647.66;5089405;28;20028;-71
2024/01/15 07:24:52;;;;;;;5.97;0.80;;;;;;;-146.27;90.08;42657.59;5056763;28;20043;-71
2024/01/15 07:27:18;;;;;;;10.02;0.73;;;;;;;-146.27;90.00;42655.63;5066286;28;20107;-71
2024/01/15 07:29:43;;;;;;;4.97;0.82;;;;;;;-146.27;89.78;42655.63;5067523;28;20058;-72
2024/01/15 07:32:09;;;;;;;6.45;0.82;;;;;;;-146.27;89.92;42679.47;5063780;28;20031;-73
2024/01/15 07:34:34;;;;;;;2.60;1.00;;;;;;;-146.27;90.01;42663.56;5064042;28;20021;-72
2024/01/15 07:37:00;;;;;;;4.30;0.85;;;;;;;-146.27;90.01;42655.63;5066708;28;20032;-72
2024/01/15 07:39:25;;;;;;;6.22;0.95;;;;;;;-146.27;89.87;42651.63;5071548;28;20036;-72
2024/01/15 07:41:52;;;;;;;5.50;0.65;;;;;;;-146.27;89.90;42653.63;5071594;28;20020;-72
2024/01/15 07:44:17;;;;;;;6.60;1.05;;;;;;;-146.27;90.36;42651.63;5067906;28;20027;-72
2024/01/15 07:46:46;;;;;;;7.70;0.95;;;;;;;-146.27;90.49;42643.69;5073078;28;20492;-72
2024/01/15 07:49:12;;;;;;;7.47;1.65;;;;;;;-146.27;91.41;42635.72;5070367;28;20612;-73
2024/01/15 07:51:37;;;;;;;9.35;1.10;;;;;;;-146.27;91.58;42615.84;5069896;28;20031;-72
2024/01/15 07:54:03;;;;;;;12.90;1.70;;;;;;;-146.27;90.99;42625.78;5083295;28;20107;-72
2024/01/15 07:56:28;;;;;;;5.57;0.80;;;;;;;-146.27;91.16;42649.66;5065448;28;20044;-73
2024/01/15 07:58:54;;;;;;;5.88;1.00;;;;;;;-146.27;92.33;42584.00;5065353;28;20444;-73
2024/01/15 08:01:19;;;;;;;7.15;0.85;;;;;;;-146.27;93.00;42611.84;5065636;28;20033;-72
2024/01/15 08:03:44;;;;;;;22.83;2.35;;;;;;;-146.27;94.13;42570.09;5060814;28;20027;-72
2024/01/15 08:06:13;;;;;;;6.78;0.77;;;;;;;-146.27;93.79;42578.03;5065761;28;20020;-70
2024/01/15 08:08:38;;;;;;;7.05;1.25;;;;;;;-146.27;93.53;42566.13;5058802;28;20025;-71
2024/01/15 08:11:04;;;;;;;18.00;2.00;;;;;;;-146.27;92.66;42627.78;5057462;28;20032;-71
2024/01/15 08:13:30;;;;;;;14.63;1.67;;;;;;;-146.27;91.75;42621.81;5058366;28;20025;-72
2024/01/15 08:15:56;;;;;;;19.05;2.00;;;;;;;-146.27;91.33;42683.47;5068974;28;20040;-71
2024/01/15 08:18:22;;;;;;;17.23;1.48;;;;;;;-146.27;90.52;42751.06;5075478;28;20111;-70
2024/01/15 08:20:50;;;;;;;6.75;1.25;;;;;;;-146.27;90.11;42836.59;5064570;28;20107;-70
2024/01/15 08:23:15;;;;;;;9.95;1.10;;;;;;;-146.27;89.67;42898.25;5059599;28;20040;-71
2024/01/15 08:25:40;;;;;;;18.27;3.17;;;;;;;-146.27;89.37;42965.88;5065986;28;20175;-71
2024/01/15 08:28:06;;;;;;;15.77;1.30;;;;;;;-146.27;89.22;43027.53;5065059;28;20127;-72
2024/01/15 08:30:31;;;;;;;11.90;0.93;;;;;;;-146.27;89.14;43051.41;5064496;28;20458;-72
2024/01/15 08:32:57;;;;;;;9.82;1.30;;;;;;;-146.27;88.57;43117.06;5059675;28;20168;-71
2024/01/15 08:35:22;;;;;;;9.75;1.38;;;;;;;-146.27;88.75;43128.97;5068035;28;20078;-72
2024/01/15 08:37:52;;;;;;;2.55;0.88;;;;;;;-146.27;88.72;43216.50;5061540;28;20028;-72
2024/01/15 08:40:18;;;;;;;8.98;1.55;;;;;;;-146.27;88.51;43240.38;5055570;28;20033;-72
2024/01/15 08:42:45;;;;;;;3.75;0.95;;;;;;;-146.27;87.36;43242.38;5060294;28;20538;-72
2024/01/15 08:45:10;;;;;;;6.10;0.93;;;;;;;-146.27;87.39;43313.97;5066813;28;20028;-72
2024/01/15 08:47:35;;;;;;;12.68;0.90;;;;;;;-146.27;86.66;43367.69;5067492;28;20327;-72
2024/01/15 08:50:03;;;;;;;4.53;0.63;;;;;;;-146.27;86.54;43399.50;5063895;28;20064;-72
2024/01/15 08:52:28;;;;;;;3.15;0.70;;;;;;;-146.27;85.82;43419.41;5062401;28;20032;-72
2024/01/15 08:54:54;;;;;;;4.25;0.40;;;;;;;-146.27;85.79;43395.53;5064761;28;20036;-72
2024/01/15 08:57:19;;;;;;;6.32;0.75;;;;;;;-146.27;85.82;43349.78;5062980;28;20025;-71
2024/01/15 08:59:45;;;;;;;3.67;1.00;;;;;;;-146.27;86.75;43311.97;5064693;28;20457;-72
2024/01/15 09:02:10;;;;;;;5.60;1.08;;;;;;;-146.27;85.71;43264.25;5061763;28;20060;-72
2024/01/15 09:04:35;;;;;;;12.43;2.00;;;;;;;-146.27;86.36;43220.47;5064765;28;20025;-72
2024/01/15 09:07:01;;;;;;;5.95;1.90;;;;;;;-146.27;86.43;43246.34;5060765;28;20032;-72
2024/01/15 09:09:27;;;;;;;7.65;0.80;;;;;;;-146.27;86.96;43180.69;5067647;28;20043;-72
2024/01/15 09:11:52;;;;;;;11.68;1.90;;;;;;;-146.27;87.59;43188.66;5069116;28;20496;-72
2024/01/15 09:14:18;;;;;;;9.65;1.30;;;;;;;-146.27;88.11;43188.66;5064545;28;20684;-71
2024/01/15 09:16:43;;;;;;;6.35;0.80;;;;;;;-146.27;88.27;43132.97;5069998;28;20493;-71
2024/01/15 09:19:08;;;;;;;6.43;1.48;;;;;;;-146.27;88.50;43132.97;5067562;28;20025;-71
2024/01/15 09:21:34;;;;;;;12.30;1.00;;;;;;;-146.27;88.70;43146.88;5065151;28;20094;-70
2024/01/15 09:23:59;;;;;;;4.20;1.05;;;;;;;-146.27;89.05;43180.69;5072876;28;20496;-71
2024/01/15 09:26:26;;;;;;;10.90;0.90;;;;;;;-146.27;88.43;43148.88;5063758;28;20488;-70
2024/01/15 09:28:52;;;;;;;9.57;1.10;;;;;;;-146.27;88.35;43176.72;5059793;28;20074;-70
2024/01/15 09:31:17;;;;;;;7.82;1.30;;;;;;;-146.27;88.35;43204.56;5066917;28;20056;-70
2024/01/15 09:33:43;;;;;;;4.40;0.70;;;;;;;-146.27;87.65;43306.00;5061906;28;20497;-70
2024/01/15 09:36:08;;;;;;;5.80;0.50;;;;;;;-146.27;86.98;43383.59;5062816;28;20028;-71
2024/01/15 09:38:34;;;;;;;4.20;0.68;;;;;;;-146.27;87.17;43431.34;5052846;28;20025;-70
2024/01/15 09:41:00;;;;;;;1.38;0.40;;;;;;;-146.27;86.59;43427.34;5057431;28;20508;-71
2024/01/15 09:43:26;;;;;;;3.38;0.90;;;;;;;-146.27;86.23;43445.25;5059556;28;20060;-69
2024/01/15 09:45:52;;;;;;;1.08;0.50;;;;;;;-146.27;86.78;43554.66;5064270;28;20025;-70
2024/01/15 09:48:18;;;;;;;8.27;1.67;;;;;;;-146.27;86.57;43506.94;5059089;28;20434;-70
2024/01/15 09:50:43;;;;;;;6.30;0.75;;;;;;;-146.27;85.07;43407.47;5055558;28;20021;-71
2024/01/15 09:53:09;;;;;;;4.28;1.00;;;;;;;-146.27;83.50;43469.13;5057762;28;20533;-71
2024/01/15 09:55:38;;;;;;;7.05;1.42;;;;;;;-146.27;82.78;43576.56;5060838;28;20484;-70
2024/01/15 09:58:03;;;;;;;11.95;1.05;;;;;;;-146.27;82.70;43652.16;5067233;28;20082;-71
2024/01/15 10:00:31;;;;;;;3.88;0.82;;;;;;;-146.27;83.50;43682.00;5067508;28;20480;-70
2024/01/15 10:02:56;;;;;;;4.43;0.60;;;;;;;-146.27;83.88;43602.41;5063826;28;20063;-70
2024/01/15 10:05:22;;;;;;;3.08;0.60;;;;;;;-146.27;84.14;43554.66;5064530;28;20066;-71
2024/01/15 10:07:49;;;;;;;6.55;0.73;;;;;;;-146.27;85.07;43487.03;5062913;28;20027;-72
2024/01/15 10:10:15;;;;;;;10.15;2.25;;;;;;;-146.27;86.16;43357.72;5063386;28;20037;-71
2024/01/15 10:12:42;;;;;;;8.77;1.25;;;;;;;-146.27;86.82;43341.81;5054198;28;20440;-71
2024/01/15 10:15:13;;;;;;;8.55;0.98;;;;;;;-146.27;87.32;43268.22;5065166;28;20135;-73
2024/01/15 10:17:39;;;;;;;3.47;0.55;;;;;;;-146.27;86.93;43345.81;5068415;28;20110;-71
2024/01/15 10:20:09;;;;;;;9.00;0.95;;;;;;;-146.27;87.09;43423.38;5070751;28;20378;-71
2024/01/15 10:22:37;;;;;;;10.05;0.95;;;;;;;-146.27;87.80;43447.25;5066127;28;20111;-70
2024/01/15 10:25:03;;;;;;;7.40;1.20;;;;;;;-146.27;87.05;43425.38;5068711;28;20048;-70
2024/01/15 10:27:29;;;;;;;5.60;0.98;;;;;;;-146.27;86.22;43473.09;5067793;28;20021;-71
2024/01/15 10:29:58;;;;;;;2.85;0.70;;;;;;;-146.27;85.91;43363.69;5062950;28;20055;-71
2024/01/15 10:32:24;;;;;;;5.65;0.88;;;;;;;-146.27;85.75;43331.88;5064473;28;20535;-71
2024/01/15 10:34:52;;;;;;;8.35;1.70;;;;;;;-146.27;84.96;43377.63;5070016;28;20060;-70
2024/01/15 10:37:18;;;;;;;3.92;0.60;;;;;;;-146.27;85.02;43564.63;5060706;28;20082;-71
2024/01/15 10:39:44;;;;;;;5.68;1.30;;;;;;;-146.27;85.36;43451.22;5063803;28;20028;-71
2024/01/15 10:42:09;;;;;;;12.60;1.98;;;;;;;-146.27;85.57;43355.75;5065157;28;20043;-70
2024/01/15 10:44:35;;;;;;;10.15;1.13;;;;;;;-146.27;85.12;43252.31;5059722;28;20591;-70
2024/01/15 10:47:00;;;;;;;17.80;1.60;;;;;;;-146.27;80.84;43361.72;5067017;28;20058;-71
2024/01/15 10:49:28;;;;;;;3.50;1.05;;;;;;;-146.27;74.49;43793.41;5060156;28;20412;-72
2024/01/15 10:51:53;;;;;;;5.80;0.90;;;;;;;-146.27;74.41;44006.25;5060722;28;20527;-72
2024/01/15 10:54:19;;;;;;;8.20;1.25;;;;;;;-146.27;74.64;44175.38;5066034;28;20103;-70
2024/01/15 10:56:46;;;;;;;7.65;1.13;;;;;;;-146.27;74.69;44042.06;5076349;28;20166;-72
2024/01/15 10:59:13;;;;;;;6.75;1.15;;;;;;;-146.27;72.41;44073.91;5075927;28;20429;-72
2024/01/15 11:01:38;;;;;;;11.43;0.85;;;;;;;-146.27;73.63;44151.50;5072066;28;20111;-71
2024/01/15 11:04:05;;;;;;;7.22;1.05;;;;;;;-146.27;73.46;44036.09;5066690;28;20013;-71
2024/01/15 11:06:43;;;;;;;9.10;1.60;;;;;;;-146.27;73.31;44036.09;5070260;28;20542;-71